Time;durP1;ratioP1;P1;durP2;ratioP2;P2;SDS_P1;SDS_P2;PMS_P1;PMS_P2;Temp;Humidity;BMP_temperature;BMP_pressure;BME280_temperature;BME280_humidity;BME280_pressure;Samples;Min_cycle;Max_cycle;Signal;HPM_P1;HPM_P2
2022/04/06 00:02:04;;;;;;;24.77;11.02;;;9.40;99.90;;;;;;5015877;28;20041;-76
2022/04/06 00:04:30;;;;;;;17.95;9.13;;;9.30;99.90;;;;;;5014001;28;20413;-76
2022/04/06 00:06:55;;;;;;;24.73;11.30;;;9.30;99.90;;;;;;5015765;28;20037;-76
2022/04/06 00:09:21;;;;;;;23.02;10.82;;;9.20;99.90;;;;;;4996764;28;20069;-76
2022/04/06 00:11:48;;;;;;;24.27;9.70;;;9.20;99.90;;;;;;5015753;28;20087;-76
2022/04/06 00:14:13;;;;;;;23.42;10.55;;;9.30;99.90;;;;;;4998451;28;20076;-77
2022/04/06 00:16:39;;;;;;;23.08;9.80;;;9.40;99.90;;;;;;5015996;28;20485;-76
2022/04/06 00:19:04;;;;;;;23.13;9.38;;;9.30;99.90;;;;;;5013696;28;20504;-76
2022/04/06 00:21:30;;;;;;;22.20;9.52;;;9.40;99.90;;;;;;4999091;28;20054;-75
2022/04/06 00:23:56;;;;;;;16.83;9.73;;;9.40;99.90;;;;;;5014397;28;20056;-76
2022/04/06 00:26:23;;;;;;;20.88;9.60;;;9.40;99.90;;;;;;5015775;28;20371;-76
2022/04/06 00:28:49;;;;;;;19.65;8.90;;;9.40;99.90;;;;;;4995203;28;20033;-77
2022/04/06 00:31:14;;;;;;;23.02;9.20;;;9.50;99.90;;;;;;5014410;28;20041;-76
2022/04/06 00:33:40;;;;;;;21.85;9.32;;;9.40;99.90;;;;;;5014628;28;20037;-76
2022/04/06 00:36:05;;;;;;;21.88;9.88;;;9.40;99.90;;;;;;5014449;28;20501;-76
2022/04/06 00:38:31;;;;;;;22.63;8.63;;;9.30;99.90;;;;;;5014375;28;20042;-76
2022/04/06 00:40:57;;;;;;;21.58;8.13;;;9.40;99.90;;;;;;5015337;28;20120;-76
2022/04/06 00:43:22;;;;;;;21.73;9.15;;;9.40;99.90;;;;;;4997728;28;20037;-76
2022/04/06 00:45:48;;;;;;;24.17;9.43;;;9.40;99.90;;;;;;5015638;28;20136;-76
2022/04/06 00:48:14;;;;;;;21.13;7.63;;;9.50;99.90;;;;;;5014357;28;20539;-76
2022/04/06 00:50:41;;;;;;;17.20;7.30;;;9.50;99.90;;;;;;4999083;28;20040;-76
2022/04/06 00:53:07;;;;;;;21.95;8.27;;;9.50;99.90;;;;;;5014419;28;20128;-76
2022/04/06 00:55:36;;;;;;;22.00;9.60;;;9.50;99.90;;;;;;5015479;28;20132;-76
2022/04/06 00:58:03;;;;;;;19.58;7.93;;;9.40;99.90;;;;;;5012227;28;20130;-76
2022/04/06 01:00:29;;;;;;;27.35;9.00;;;9.40;99.90;;;;;;4996963;28;20575;-76
2022/04/06 01:02:55;;;;;;;21.25;8.30;;;9.40;99.90;;;;;;5015092;28;20042;-76
2022/04/06 01:05:21;;;;;;;22.08;8.57;;;9.50;99.90;;;;;;4997939;28;20116;-76
2022/04/06 01:07:52;;;;;;;20.75;8.15;;;9.50;99.90;;;;;;5014059;28;20124;-76
2022/04/06 01:10:18;;;;;;;16.27;7.83;;;9.50;99.90;;;;;;4998857;28;20566;-77
2022/04/06 01:12:48;;;;;;;17.90;6.28;;;9.40;99.90;;;;;;5014339;28;20524;-77
2022/04/06 01:15:15;;;;;;;18.38;7.07;;;9.50;99.90;;;;;;5027912;28;20057;-77
2022/04/06 01:17:42;;;;;;;18.35;5.80;;;9.50;99.90;;;;;;5026473;28;20049;-76
2022/04/06 01:20:09;;;;;;;16.95;7.13;;;9.50;99.90;;;;;;5010565;28;20037;-76
2022/04/06 01:22:35;;;;;;;17.60;5.75;;;9.50;99.90;;;;;;4995158;28;20084;-77
2022/04/06 01:25:01;;;;;;;17.08;6.97;;;9.60;99.90;;;;;;4994548;28;20117;-77
2022/04/06 01:27:28;;;;;;;16.45;6.40;;;9.60;99.90;;;;;;5010137;28;20033;-76
2022/04/06 01:29:54;;;;;;;17.08;6.25;;;9.60;99.90;;;;;;5009673;28;20048;-77
2022/04/06 01:32:32;;;;;;;17.10;7.18;;;9.50;99.90;;;;;;5011563;28;20125;-77
2022/04/06 01:34:58;;;;;;;14.25;6.50;;;9.50;99.90;;;;;;4994537;28;20049;-76
2022/04/06 01:37:24;;;;;;;20.38;6.13;;;9.60;99.90;;;;;;5013659;28;20046;-77
2022/04/06 01:39:50;;;;;;;19.80;6.80;;;9.50;99.90;;;;;;5014218;28;20592;-76
2022/04/06 01:42:18;;;;;;;20.63;7.90;;;9.50;99.90;;;;;;5015100;28;20045;-77
2022/04/06 01:44:45;;;;;;;16.98;7.20;;;9.50;99.90;;;;;;4997787;28;20034;-76
2022/04/06 01:47:12;;;;;;;19.45;7.20;;;9.50;99.90;;;;;;5015060;28;20069;-77
2022/04/06 01:52:23;;;;;;;17.83;7.65;;;9.50;99.90;;;;;;5014864;28;20050;-76
2022/04/06 01:54:55;;;;;;;19.30;7.85;;;9.50;99.90;;;;;;5014097;28;20034;-77
2022/04/06 01:57:21;;;;;;;19.50;8.60;;;9.60;99.90;;;;;;5014864;28;20073;-77
2022/04/06 01:59:47;;;;;;;14.85;6.68;;;9.50;99.90;;;;;;5013832;28;20549;-76
2022/04/06 02:02:15;;;;;;;20.70;7.70;;;9.50;99.90;;;;;;5013958;28;20036;-76
2022/04/06 02:04:41;;;;;;;17.02;7.15;;;9.60;99.90;;;;;;4997270;28;20413;-77
2022/04/06 02:07:10;;;;;;;15.98;7.28;;;9.60;99.90;;;;;;5012856;28;20033;-76
2022/04/06 02:09:36;;;;;;;16.20;6.72;;;9.60;99.90;;;;;;4987059;28;20050;-76
2022/04/06 02:12:02;;;;;;;17.10;6.80;;;9.70;99.90;;;;;;4975900;28;20070;-76
2022/04/06 02:14:28;;;;;;;17.27;6.00;;;9.60;99.90;;;;;;4999735;28;20096;-77
2022/04/06 02:16:53;;;;;;;16.10;7.22;;;9.60;99.90;;;;;;4995028;28;20061;-76
2022/04/06 02:19:19;;;;;;;14.73;6.70;;;9.60;99.90;;;;;;4998094;28;20103;-77
2022/04/06 02:21:44;;;;;;;18.75;7.47;;;9.60;99.90;;;;;;5002984;28;20039;-77
2022/04/06 02:24:10;;;;;;;17.00;6.65;;;9.60;99.90;;;;;;4993293;28;20498;-76
2022/04/06 02:26:36;;;;;;;11.10;5.47;;;9.50;99.90;;;;;;5017464;28;20469;-76
2022/04/06 02:29:02;;;;;;;14.85;5.18;;;9.50;99.90;;;;;;5000497;28;20083;-76
2022/04/06 02:31:28;;;;;;;12.13;4.60;;;9.50;99.90;;;;;;5005035;28;20056;-76
2022/04/06 02:33:53;;;;;;;13.50;5.35;;;9.60;99.90;;;;;;4989435;28;20118;-76
2022/04/06 02:36:19;;;;;;;14.30;5.57;;;9.60;99.90;;;;;;4973793;28;20061;-76
2022/04/06 02:38:47;;;;;;;14.70;4.78;;;9.70;99.90;;;;;;4994887;28;20405;-77
2022/04/06 02:41:13;;;;;;;9.77;3.90;;;9.60;99.90;;;;;;4989047;28;20057;-77
2022/04/06 02:43:38;;;;;;;15.30;5.93;;;9.50;99.90;;;;;;4976368;28;20462;-77
2022/04/06 02:46:04;;;;;;;6.53;2.53;;;9.50;99.90;;;;;;4974266;28;20029;-76
2022/04/06 02:48:30;;;;;;;15.38;4.95;;;9.60;99.90;;;;;;4999261;28;20075;-76
2022/04/06 02:50:55;;;;;;;14.77;4.80;;;9.70;99.90;;;;;;4972381;28;20060;-77
2022/04/06 02:53:21;;;;;;;8.65;2.47;;;9.60;99.90;;;;;;4972307;28;20045;-77
2022/04/06 02:55:47;;;;;;;11.60;4.50;;;9.60;99.90;;;;;;4995799;28;20121;-76
2022/04/06 02:58:13;;;;;;;12.07;3.08;;;9.60;99.90;;;;;;4989288;28;21359;-77
2022/04/06 03:00:38;;;;;;;7.43;2.95;;;9.60;99.90;;;;;;4992654;28;20046;-76
2022/04/06 03:03:04;;;;;;;9.82;4.10;;;9.60;99.90;;;;;;4988185;28;20481;-76
2022/04/06 03:05:29;;;;;;;9.02;3.20;;;9.50;99.90;;;;;;4989086;28;20061;-76
2022/04/06 03:07:55;;;;;;;13.32;3.60;;;9.50;99.90;;;;;;4997350;28;20549;-76
2022/04/06 03:10:21;;;;;;;9.43;2.83;;;9.60;99.90;;;;;;4991235;28;20527;-76
2022/04/06 03:12:46;;;;;;;13.10;3.42;;;9.60;99.90;;;;;;4989235;28;20700;-76
2022/04/06 03:15:12;;;;;;;8.85;2.97;;;9.60;99.90;;;;;;5009312;28;20152;-76
2022/04/06 03:17:38;;;;;;;12.63;3.65;;;9.50;99.90;;;;;;5000202;28;20167;-76
2022/04/06 03:20:05;;;;;;;12.40;4.30;;;9.60;99.90;;;;;;5010948;28;20509;-76
2022/04/06 03:22:31;;;;;;;9.88;3.35;;;9.50;99.90;;;;;;4993978;28;20429;-76
2022/04/06 03:24:56;;;;;;;6.70;3.38;;;9.50;99.90;;;;;;5016674;28;20052;-76
2022/04/06 03:27:22;;;;;;;14.75;4.45;;;9.50;99.90;;;;;;5016336;28;20038;-76
2022/04/06 03:29:48;;;;;;;14.70;4.32;;;9.50;99.90;;;;;;5016478;28;20037;-76
2022/04/06 03:32:13;;;;;;;12.85;4.28;;;9.50;99.90;;;;;;4999931;28;20604;-77
2022/04/06 03:34:39;;;;;;;12.70;4.53;;;9.50;99.90;;;;;;5000256;28;20045;-76
2022/04/06 03:37:05;;;;;;;10.82;3.55;;;9.50;99.90;;;;;;5015438;28;20034;-76
2022/04/06 03:39:31;;;;;;;15.55;4.75;;;9.50;99.90;;;;;;5003917;28;20033;-76
2022/04/06 03:41:57;;;;;;;16.08;4.22;;;9.50;99.90;;;;;;5035826;28;20112;-76
2022/04/06 03:44:22;;;;;;;16.88;6.10;;;9.60;99.90;;;;;;5018266;28;20037;-77
2022/04/06 03:46:48;;;;;;;16.95;6.68;;;9.40;99.90;;;;;;4999783;28;20064;-76
2022/04/06 03:49:14;;;;;;;13.80;6.15;;;9.40;99.90;;;;;;5015989;28;20124;-76
2022/04/06 03:51:40;;;;;;;18.65;5.60;;;9.50;99.90;;;;;;5015844;28;20408;-76
2022/04/06 03:54:05;;;;;;;15.70;5.38;;;9.50;99.90;;;;;;5015977;28;20041;-76
2022/04/06 03:56:31;;;;;;;16.20;5.63;;;9.30;99.90;;;;;;4982344;28;20217;-76
2022/04/06 03:58:57;;;;;;;15.45;5.85;;;9.40;99.90;;;;;;4980104;28;20074;-77
2022/04/06 04:01:22;;;;;;;16.70;4.75;;;9.50;99.90;;;;;;4996236;28;20374;-76
2022/04/06 04:03:48;;;;;;;18.77;6.72;;;9.60;99.90;;;;;;4996271;28;20128;-76
2022/04/06 04:06:14;;;;;;;15.50;6.05;;;9.60;99.90;;;;;;4996153;28;20401;-76
2022/04/06 04:08:40;;;;;;;17.73;7.43;;;9.60;99.90;;;;;;4996113;28;20069;-76
2022/04/06 04:11:06;;;;;;;18.83;6.35;;;9.50;99.90;;;;;;4996076;28;20045;-76
2022/04/06 04:13:31;;;;;;;13.38;5.13;;;9.40;99.90;;;;;;4979949;28;20042;-76
2022/04/06 04:15:58;;;;;;;19.23;8.20;;;9.50;99.90;;;;;;4999400;28;20115;-76
2022/04/06 04:18:23;;;;;;;20.92;7.05;;;9.50;99.90;;;;;;5015609;28;20041;-76
2022/04/06 04:20:49;;;;;;;19.40;7.38;;;9.60;99.90;;;;;;4999207;28;20048;-77
2022/04/06 04:23:14;;;;;;;16.63;6.43;;;9.60;99.90;;;;;;5015384;28;20129;-76
2022/04/06 04:25:40;;;;;;;19.52;8.10;;;9.50;99.90;;;;;;5015582;28;20071;-76
2022/04/06 04:28:06;;;;;;;11.55;4.72;;;9.50;99.90;;;;;;5015590;28;20049;-74
2022/04/06 04:30:33;;;;;;;13.50;5.40;;;9.50;99.90;;;;;;5008880;28;20048;-74
2022/04/06 04:32:58;;;;;;;13.30;5.25;;;9.60;99.90;;;;;;5004540;28;20038;-74
2022/04/06 04:35:24;;;;;;;20.52;7.47;;;9.60;99.90;;;;;;5015475;28;20382;-74
2022/04/06 04:37:50;;;;;;;13.57;5.18;;;9.60;99.90;;;;;;4983862;28;20038;-74
2022/04/06 04:40:20;;;;;;;16.85;7.47;;;9.50;99.90;;;;;;4979369;28;20121;-74
2022/04/06 04:42:46;;;;;;;19.95;7.97;;;9.50;99.90;;;;;;5001198;28;20393;-74
2022/04/06 04:45:12;;;;;;;14.40;6.40;;;9.50;99.90;;;;;;5015335;28;20037;-74
2022/04/06 04:47:38;;;;;;;14.93;4.88;;;9.40;99.90;;;;;;5015577;28;20076;-73
2022/04/06 04:50:05;;;;;;;17.23;6.65;;;9.50;99.90;;;;;;5015310;28;20129;-73
2022/04/06 04:52:31;;;;;;;16.90;7.22;;;9.30;99.90;;;;;;5015315;28;20045;-73
2022/04/06 04:54:56;;;;;;;13.50;5.18;;;9.30;99.90;;;;;;4999003;28;20048;-74
2022/04/06 04:57:22;;;;;;;16.35;5.90;;;9.40;99.90;;;;;;4999215;28;20045;-73
2022/04/06 04:59:47;;;;;;;14.48;4.88;;;9.30;99.90;;;;;;4997844;28;20037;-74
2022/04/06 05:02:13;;;;;;;19.13;5.68;;;9.40;99.90;;;;;;4979361;28;20041;-74
2022/04/06 05:04:39;;;;;;;7.32;3.85;;;9.40;99.90;;;;;;4979374;28;20092;-73
2022/04/06 05:07:04;;;;;;;13.18;4.60;;;9.30;99.90;;;;;;4995618;28;20453;-74
2022/04/06 05:09:30;;;;;;;10.98;3.63;;;9.40;99.90;;;;;;4995568;28;20125;-74
2022/04/06 05:11:55;;;;;;;17.52;4.53;;;9.50;99.90;;;;;;4996561;28;20045;-74
2022/04/06 05:14:21;;;;;;;12.15;4.10;;;9.30;99.90;;;;;;4999420;28;20093;-74
2022/04/06 05:16:47;;;;;;;17.85;4.82;;;9.30;99.90;;;;;;4983113;28;20096;-74
2022/04/06 05:19:12;;;;;;;10.48;3.75;;;9.20;99.90;;;;;;4983157;28;20454;-74
2022/04/06 05:21:38;;;;;;;7.55;2.60;;;9.30;99.90;;;;;;4982848;28;20063;-74
2022/04/06 05:24:04;;;;;;;11.48;3.88;;;9.30;99.90;;;;;;4982905;28;20038;-73
2022/04/06 05:26:30;;;;;;;8.63;2.88;;;9.30;99.90;;;;;;4999092;28;20570;-74
2022/04/06 05:28:56;;;;;;;14.32;2.53;;;9.30;99.90;;;;;;4998996;28;20129;-74
2022/04/06 05:31:22;;;;;;;15.68;4.05;;;9.40;99.90;;;;;;4998975;28;20081;-74
2022/04/06 05:33:48;;;;;;;10.80;3.60;;;9.10;99.90;;;;;;4982490;28;20134;-74
2022/04/06 05:36:14;;;;;;;11.63;3.25;;;9.10;99.90;;;;;;4999330;28;20081;-74
2022/04/06 05:38:39;;;;;;;12.68;3.45;;;9.20;99.90;;;;;;5018433;28;20524;-74
2022/04/06 05:41:05;;;;;;;11.05;2.90;;;9.20;99.90;;;;;;5018813;28;20128;-74
2022/04/06 05:43:31;;;;;;;7.22;2.22;;;9.20;99.90;;;;;;5002074;28;20075;-74
2022/04/06 05:45:56;;;;;;;11.10;3.20;;;9.20;99.90;;;;;;4988662;28;20038;-74
2022/04/06 05:48:22;;;;;;;9.75;2.45;;;9.10;99.90;;;;;;4985825;28;20140;-74
2022/04/06 05:50:47;;;;;;;12.52;2.80;;;9.20;99.90;;;;;;5006409;28;20041;-74
2022/04/06 05:53:14;;;;;;;9.70;2.10;;;9.10;99.90;;;;;;5034657;28;20494;-75
2022/04/06 05:55:40;;;;;;;11.98;3.65;;;9.20;99.90;;;;;;4999086;28;20092;-74
2022/04/06 05:58:06;;;;;;;14.90;2.15;;;9.20;99.90;;;;;;4982349;28;20487;-74
2022/04/06 06:00:32;;;;;;;7.47;2.25;;;9.20;99.90;;;;;;4998429;28;20046;-74
2022/04/06 06:02:57;;;;;;;12.70;3.35;;;9.30;99.90;;;;;;4998392;28;20042;-75
2022/04/06 06:05:23;;;;;;;12.52;2.80;;;9.20;99.90;;;;;;4990791;28;20704;-74
2022/04/06 06:07:48;;;;;;;6.30;2.00;;;9.10;99.90;;;;;;5000960;28;20516;-74
2022/04/06 06:10:14;;;;;;;9.48;2.97;;;9.20;99.90;;;;;;5014347;28;20041;-74
2022/04/06 06:12:39;;;;;;;6.50;1.73;;;9.20;99.90;;;;;;5000298;28;20041;-75
2022/04/06 06:15:06;;;;;;;10.18;2.50;;;9.20;99.90;;;;;;5000317;28;20043;-75
2022/04/06 06:17:39;;;;;;;13.65;3.72;;;9.10;99.90;;;;;;4999719;28;20091;-75
2022/04/06 06:20:05;;;;;;;10.32;2.42;;;9.00;99.90;;;;;;5017318;28;20053;-74
2022/04/06 06:22:31;;;;;;;9.57;2.50;;;9.00;99.90;;;;;;4999711;28;20115;-75
2022/04/06 06:24:56;;;;;;;10.57;3.25;;;9.10;99.90;;;;;;5017095;28;20498;-74
2022/04/06 06:27:23;;;;;;;6.72;2.03;;;9.10;99.90;;;;;;5016674;28;20120;-74
2022/04/06 06:29:49;;;;;;;8.05;2.67;;;9.10;99.90;;;;;;5015617;28;20123;-75
2022/04/06 06:32:15;;;;;;;7.85;2.28;;;9.00;99.90;;;;;;5017110;28;20556;-74
2022/04/06 06:34:40;;;;;;;9.68;2.20;;;9.10;99.90;;;;;;4997239;28;20045;-74
2022/04/06 06:37:06;;;;;;;10.60;2.47;;;9.00;99.90;;;;;;5001732;28;20116;-74
2022/04/06 06:39:31;;;;;;;6.13;1.80;;;8.80;99.90;;;;;;4999997;28;20075;-75
2022/04/06 06:41:57;;;;;;;2.95;1.08;;;9.00;99.90;;;;;;5001293;28;20037;-74
2022/04/06 06:44:23;;;;;;;8.52;2.00;;;9.10;99.90;;;;;;5017034;28;20489;-75
2022/04/06 06:46:48;;;;;;;7.82;2.78;;;9.00;99.90;;;;;;4999372;28;20041;-75
2022/04/06 06:49:15;;;;;;;5.10;1.88;;;8.90;99.90;;;;;;5016460;28;20098;-75
2022/04/06 06:51:41;;;;;;;6.60;1.40;;;8.90;99.90;;;;;;5015937;28;20061;-75
2022/04/06 06:54:07;;;;;;;5.97;1.65;;;8.90;99.90;;;;;;5000735;28;20152;-74
2022/04/06 06:56:33;;;;;;;5.00;0.95;;;9.00;99.90;;;;;;5015679;28;20049;-74
2022/04/06 06:58:58;;;;;;;4.72;1.48;;;8.90;99.90;;;;;;5014681;28;20053;-75
2022/04/06 07:01:24;;;;;;;9.40;2.25;;;9.00;99.90;;;;;;4999062;28;20044;-75
2022/04/06 07:03:49;;;;;;;11.05;2.55;;;9.10;99.90;;;;;;5013848;28;20377;-75
2022/04/06 07:06:15;;;;;;;9.90;2.67;;;8.90;99.90;;;;;;5014963;28;20038;-75
2022/04/06 07:08:41;;;;;;;7.90;1.88;;;8.90;99.90;;;;;;5015409;28;20041;-75
2022/04/06 07:11:07;;;;;;;7.15;1.67;;;9.00;99.90;;;;;;4997729;28;20508;-75
2022/04/06 07:13:33;;;;;;;7.80;2.30;;;9.10;99.90;;;;;;5016061;28;20041;-74
2022/04/06 07:15:58;;;;;;;4.85;1.90;;;9.10;99.90;;;;;;5014486;28;20047;-76
2022/04/06 07:18:24;;;;;;;8.45;1.92;;;9.10;99.90;;;;;;5000328;28;20120;-75
2022/04/06 07:20:49;;;;;;;13.90;3.10;;;9.00;99.90;;;;;;4998030;28;20099;-75
2022/04/06 07:23:15;;;;;;;4.88;1.70;;;9.00;99.90;;;;;;5015873;28;20055;-75
2022/04/06 07:25:41;;;;;;;9.13;2.60;;;9.00;99.90;;;;;;4999402;28;20115;-75
2022/04/06 07:28:07;;;;;;;10.23;2.50;;;9.00;99.90;;;;;;5015983;28;20062;-75
2022/04/06 07:30:32;;;;;;;7.35;2.00;;;9.00;99.90;;;;;;5013936;28;20084;-75
2022/04/06 07:32:58;;;;;;;8.48;2.35;;;9.00;99.90;;;;;;5016343;28;20037;-75
2022/04/06 07:35:24;;;;;;;7.15;1.85;;;9.00;99.90;;;;;;4996641;28;20045;-75
2022/04/06 07:37:51;;;;;;;9.70;1.88;;;9.00;99.90;;;;;;4998184;28;20428;-75
2022/04/06 07:40:21;;;;;;;9.32;3.03;;;9.00;99.90;;;;;;5014443;28;20056;-75
2022/04/06 07:42:49;;;;;;;10.07;2.50;;;9.00;99.90;;;;;;4996216;28;20084;-75
2022/04/06 07:45:18;;;;;;;5.22;1.95;;;9.00;99.90;;;;;;4996158;28;20044;-75
2022/04/06 07:47:49;;;;;;;5.72;2.22;;;9.10;99.90;;;;;;5015525;28;20567;-75
2022/04/06 07:50:16;;;;;;;9.25;3.40;;;9.10;99.90;;;;;;4998546;28;20044;-75
2022/04/06 07:52:42;;;;;;;14.93;2.42;;;9.10;99.90;;;;;;4997964;28;20508;-75
2022/04/06 07:55:09;;;;;;;9.40;2.75;;;9.10;99.90;;;;;;5014366;28;20124;-75
2022/04/06 07:57:36;;;;;;;7.07;2.25;;;9.00;99.90;;;;;;5015904;28;20041;-75
2022/04/06 08:00:21;;;;;;;11.07;3.03;;;9.00;99.90;;;;;;5009294;28;20050;-75
2022/04/06 08:02:49;;;;;;;10.73;2.80;;;9.00;99.90;;;;;;5011530;28;20045;-75
2022/04/06 08:05:15;;;;;;;13.93;2.53;;;9.10;99.90;;;;;;4996677;28;20044;-75
2022/04/06 08:07:43;;;;;;;12.10;2.92;;;9.00;99.90;;;;;;5012462;28;20161;-75
2022/04/06 08:10:11;;;;;;;7.00;2.50;;;9.10;99.90;;;;;;5011033;28;20095;-75
2022/04/06 08:12:37;;;;;;;7.30;2.00;;;9.10;99.90;;;;;;5014676;28;20044;-75
2022/04/06 08:15:04;;;;;;;8.73;2.53;;;9.20;99.90;;;;;;4999294;28;20049;-74
2022/04/06 08:17:37;;;;;;;7.43;2.17;;;9.10;99.90;;;;;;5013292;28;20056;-76
2022/04/06 08:20:04;;;;;;;5.45;1.88;;;9.10;99.90;;;;;;5014724;28;20045;-76
2022/04/06 08:22:31;;;;;;;9.52;3.42;;;9.10;99.90;;;;;;4997553;28;20053;-76
2022/04/06 08:24:59;;;;;;;10.65;2.78;;;9.10;99.90;;;;;;5014254;28;20564;-76
2022/04/06 08:27:44;;;;;;;5.90;2.42;;;9.20;99.90;;;;;;5015120;28;20042;-76
2022/04/06 08:30:12;;;;;;;12.30;3.08;;;9.20;99.90;;;;;;4998726;28;20493;-77
2022/04/06 08:32:38;;;;;;;5.55;1.70;;;9.20;99.90;;;;;;4995626;28;20030;-76
2022/04/06 08:35:05;;;;;;;11.30;2.38;;;9.20;99.90;;;;;;5006779;28;20504;-76
2022/04/06 08:37:31;;;;;;;8.57;2.40;;;9.20;99.90;;;;;;4997623;28;20068;-76
2022/04/06 08:40:03;;;;;;;7.20;1.90;;;9.20;99.90;;;;;;5013006;28;20400;-76
2022/04/06 08:42:32;;;;;;;10.50;3.50;;;9.20;99.90;;;;;;4998630;28;20125;-76
2022/04/06 08:45:09;;;;;;;7.65;2.53;;;9.10;99.90;;;;;;4995242;28;20125;-76
2022/04/06 08:47:36;;;;;;;12.48;4.38;;;9.10;99.90;;;;;;4985183;28;20077;-76
2022/04/06 08:50:03;;;;;;;10.85;3.60;;;9.10;99.90;;;;;;5018777;28;20493;-76
2022/04/06 08:52:35;;;;;;;7.15;2.90;;;9.20;99.90;;;;;;5018109;28;20099;-76
2022/04/06 08:55:01;;;;;;;6.05;2.13;;;9.30;99.90;;;;;;4998906;28;20498;-76
2022/04/06 08:57:27;;;;;;;8.70;3.03;;;9.30;99.90;;;;;;5003122;28;20045;-76
2022/04/06 08:59:54;;;;;;;7.82;2.30;;;9.30;99.90;;;;;;5011608;28;20054;-76
2022/04/06 09:02:20;;;;;;;6.68;2.53;;;9.20;99.90;;;;;;5017655;28;20034;-77
2022/04/06 09:04:51;;;;;;;8.23;2.70;;;9.20;99.90;;;;;;5018831;28;20060;-76
2022/04/06 09:07:20;;;;;;;10.98;2.75;;;9.30;99.90;;;;;;5002496;28;20374;-75
2022/04/06 09:09:49;;;;;;;6.28;2.75;;;9.30;99.90;;;;;;5000726;28;20048;-76
2022/04/06 09:12:17;;;;;;;7.50;2.20;;;9.40;99.90;;;;;;5004919;28;20091;-76
2022/04/06 09:14:43;;;;;;;13.27;3.72;;;9.40;99.90;;;;;;5015889;28;20042;-76
2022/04/06 09:17:09;;;;;;;10.55;2.78;;;9.40;99.90;;;;;;5018741;28;20563;-76
2022/04/06 09:19:38;;;;;;;8.85;2.75;;;9.40;99.90;;;;;;5018801;28;20076;-76
2022/04/06 09:22:07;;;;;;;10.02;3.80;;;9.60;99.90;;;;;;5018431;28;20045;-76
2022/04/06 09:24:33;;;;;;;6.88;1.83;;;9.60;99.90;;;;;;5001928;28;20116;-76
2022/04/06 09:27:00;;;;;;;8.07;2.33;;;9.70;99.90;;;;;;5016306;28;20037;-76
2022/04/06 09:29:26;;;;;;;9.82;3.30;;;9.70;99.90;;;;;;5001245;28;20068;-76
2022/04/06 09:31:52;;;;;;;11.52;3.38;;;9.70;99.90;;;;;;5001941;28;20489;-76
2022/04/06 09:34:22;;;;;;;13.00;2.95;;;9.70;99.90;;;;;;4999497;28;20044;-76
2022/04/06 09:36:51;;;;;;;7.72;1.95;;;9.80;99.90;;;;;;4992138;28;20041;-76
2022/04/06 09:39:16;;;;;;;9.20;3.00;;;9.80;99.90;;;;;;5017148;28;20120;-76
2022/04/06 09:42:01;;;;;;;9.38;2.03;;;9.80;99.90;;;;;;5016613;28;20120;-76
2022/04/06 09:50:27;;;;;;;9.52;2.10;;;9.90;99.90;;;;;;5017603;28;20037;-76
2022/04/06 09:52:56;;;;;;;8.75;2.40;;;10.00;99.90;;;;;;5015381;28;20392;-76
2022/04/06 09:55:23;;;;;;;8.05;2.70;;;10.00;99.90;;;;;;5016676;28;20045;-76
2022/04/06 09:57:51;;;;;;;8.80;2.67;;;10.00;99.90;;;;;;4998304;28;20041;-76
2022/04/06 10:00:20;;;;;;;8.38;3.58;;;10.00;99.90;;;;;;5013006;28;20049;-76
2022/04/06 10:02:53;;;;;;;7.10;2.30;;;10.00;99.90;;;;;;5017146;28;20042;-76
2022/04/06 10:05:20;;;;;;;13.75;3.83;;;10.10;99.90;;;;;;4995450;28;20535;-76
2022/04/06 10:07:48;;;;;;;12.07;4.72;;;10.00;99.90;;;;;;5001288;28;20060;-76
2022/04/06 10:10:14;;;;;;;8.00;2.72;;;9.90;99.90;;;;;;5016503;28;20052;-76
2022/04/06 10:12:40;;;;;;;9.73;3.13;;;10.00;99.90;;;;;;5001275;28;20037;-76
2022/04/06 10:15:06;;;;;;;10.02;3.35;;;10.10;99.90;;;;;;5000700;28;20079;-76
2022/04/06 10:17:32;;;;;;;7.25;2.28;;;10.20;99.90;;;;;;5000941;28;20077;-77
2022/04/06 10:20:17;;;;;;;8.02;2.97;;;10.20;99.90;;;;;;5000732;28;20080;-77
2022/04/06 10:23:05;;;;;;;16.80;3.40;;;10.10;99.90;;;;;;5014485;28;20093;-76
2022/04/06 10:25:50;;;;;;;14.15;5.13;;;10.00;99.90;;;;;;5014288;28;20050;-76
2022/04/06 10:28:18;;;;;;;9.45;3.22;;;10.00;99.90;;;;;;5013891;28;20045;-77
2022/04/06 10:31:22;;;;;;;12.60;3.67;;;10.10;99.90;;;;;;5013817;28;20050;-76
2022/04/06 10:33:49;;;;;;;8.20;3.08;;;10.10;99.90;;;;;;5012711;28;20410;-76
2022/04/06 10:36:30;;;;;;;6.18;2.75;;;10.20;99.90;;;;;;5013708;28;20073;-77
2022/04/06 10:39:05;;;;;;;10.45;3.92;;;10.20;99.90;;;;;;4978847;28;20038;-76
2022/04/06 10:41:32;;;;;;;11.68;3.42;;;10.20;99.90;;;;;;4994441;28;20077;-77
2022/04/06 10:43:58;;;;;;;9.75;3.58;;;10.20;99.90;;;;;;4977852;28;20049;-77
2022/04/06 10:46:41;;;;;;;10.63;3.17;;;10.20;99.90;;;;;;4977798;28;20034;-76
2022/04/06 10:49:07;;;;;;;12.27;4.30;;;10.20;99.90;;;;;;4995619;28;20045;-77
2022/04/06 10:51:35;;;;;;;16.02;3.75;;;10.20;99.90;;;;;;4993942;28;20038;-77
2022/04/06 10:54:12;;;;;;;14.98;4.35;;;10.30;99.90;;;;;;4981503;28;20030;-77
2022/04/06 10:56:51;;;;;;;11.70;4.18;;;10.20;99.90;;;;;;4997526;28;20111;-76
2022/04/06 10:59:20;;;;;;;10.82;3.75;;;10.20;99.90;;;;;;4993722;28;20046;-77
2022/04/06 11:01:48;;;;;;;10.52;3.90;;;10.20;99.90;;;;;;4993727;28;20034;-76
2022/04/06 11:04:24;;;;;;;11.73;4.05;;;10.30;99.90;;;;;;4994059;28;20097;-77
2022/04/06 11:06:59;;;;;;;12.55;4.13;;;10.20;99.90;;;;;;4995668;28;20491;-77
2022/04/06 11:12:19;;;;;;;10.57;3.45;;;10.30;99.90;;;;;;5012959;28;20050;-76
2022/04/06 11:14:47;;;;;;;11.95;4.18;;;10.30;99.90;;;;;;4996940;28;20049;-76
2022/04/06 11:17:34;;;;;;;10.70;3.63;;;10.20;99.90;;;;;;5012896;28;20130;-77
2022/04/06 11:20:00;;;;;;;7.93;3.42;;;10.30;99.90;;;;;;5012918;28;20132;-77
2022/04/06 11:22:26;;;;;;;10.43;3.55;;;10.30;99.90;;;;;;4996623;28;20569;-77
2022/04/06 11:24:54;;;;;;;12.30;5.05;;;10.40;99.90;;;;;;5013240;28;20050;-77
2022/04/06 11:27:33;;;;;;;11.63;4.07;;;10.30;99.90;;;;;;4996039;28;20037;-77
2022/04/06 11:30:09;;;;;;;11.20;3.55;;;10.30;99.90;;;;;;5012923;28;20378;-77
2022/04/06 11:32:36;;;;;;;7.38;3.85;;;10.40;99.90;;;;;;5013400;28;20052;-78
2022/04/06 11:35:06;;;;;;;10.50;5.07;;;10.40;99.90;;;;;;5012718;28;20050;-77
2022/04/06 11:37:38;;;;;;;10.35;3.80;;;10.50;99.90;;;;;;5012543;28;20046;-77
2022/04/06 11:40:05;;;;;;;9.50;4.40;;;10.80;99.90;;;;;;4996607;28;20049;-76
2022/04/06 11:42:30;;;;;;;11.55;4.72;;;10.80;99.90;;;;;;5012532;28;20038;-76
2022/04/06 11:44:56;;;;;;;13.90;4.93;;;10.90;99.90;;;;;;5012637;28;20512;-76
2022/04/06 11:47:29;;;;;;;10.88;4.90;;;10.90;99.90;;;;;;4995010;28;20129;-76
2022/04/06 11:49:54;;;;;;;10.38;4.00;;;10.90;99.90;;;;;;4993047;28;20434;-76
2022/04/06 11:52:20;;;;;;;12.88;4.82;;;11.00;99.90;;;;;;4993063;28;20089;-76
2022/04/06 11:54:54;;;;;;;9.23;3.83;;;10.90;99.90;;;;;;4992694;28;20110;-76
2022/04/06 11:57:31;;;;;;;11.98;5.45;;;11.00;99.90;;;;;;4993027;28;20101;-75
2022/04/06 11:59:57;;;;;;;10.55;3.28;;;10.80;99.90;;;;;;4992557;28;20053;-76
2022/04/06 12:02:23;;;;;;;13.43;4.20;;;10.90;99.90;;;;;;4990005;28;20030;-75
2022/04/06 12:05:05;;;;;;;12.43;5.55;;;11.00;99.90;;;;;;4994088;28;20038;-75
2022/04/06 12:07:31;;;;;;;9.05;3.70;;;10.90;99.90;;;;;;5012053;28;20034;-75
2022/04/06 12:09:57;;;;;;;7.80;3.33;;;11.10;99.90;;;;;;5008362;28;20045;-76
2022/04/06 12:12:24;;;;;;;12.63;3.03;;;11.40;99.90;;;;;;5012295;28;20560;-75
2022/04/06 12:14:51;;;;;;;12.52;4.95;;;11.50;99.90;;;;;;4995040;28;20038;-75
2022/04/06 12:17:18;;;;;;;8.50;3.42;;;11.60;99.90;;;;;;4995553;28;20041;-75
2022/04/06 12:19:44;;;;;;;6.90;3.58;;;11.60;99.90;;;;;;4992865;28;20048;-76
2022/04/06 12:22:12;;;;;;;11.57;4.07;;;11.60;99.90;;;;;;5015108;28;20065;-75
2022/04/06 12:24:40;;;;;;;16.10;4.55;;;11.70;99.90;;;;;;5014524;28;20087;-76
2022/04/06 12:27:06;;;;;;;9.30;3.88;;;11.70;99.90;;;;;;5010792;28;20037;-75
2022/04/06 12:29:33;;;;;;;8.05;3.78;;;11.80;99.90;;;;;;5015546;28;20168;-75
2022/04/06 12:31:59;;;;;;;11.45;3.65;;;11.90;99.90;;;;;;4998128;28;20444;-76
2022/04/06 12:34:35;;;;;;;9.77;5.05;;;11.90;99.90;;;;;;5015083;28;20037;-75
2022/04/06 12:39:55;;;;;;;8.10;3.78;;;12.00;99.90;;;;;;5015340;28;20049;-75
2022/04/06 12:42:25;;;;;;;9.48;3.70;;;12.10;99.90;;;;;;4998004;28;20034;-76
2022/04/06 12:44:58;;;;;;;8.98;3.90;;;11.90;99.90;;;;;;4999154;28;20077;-76
2022/04/06 12:47:25;;;;;;;12.77;5.10;;;12.00;99.90;;;;;;5014610;28;20041;-75
2022/04/06 12:49:51;;;;;;;10.07;3.95;;;12.00;99.90;;;;;;5014920;28;20042;-76
2022/04/06 12:52:18;;;;;;;13.50;3.42;;;12.10;99.90;;;;;;5013129;28;20083;-76
2022/04/06 12:54:49;;;;;;;12.82;4.85;;;12.10;99.90;;;;;;5013338;28;20052;-75
2022/04/06 12:57:15;;;;;;;10.52;3.67;;;12.00;99.90;;;;;;5009110;28;20034;-76
2022/04/06 12:59:50;;;;;;;10.18;4.13;;;11.90;99.90;;;;;;4998426;28;20037;-75
2022/04/06 13:02:20;;;;;;;8.70;3.80;;;12.00;99.90;;;;;;4998291;28;20041;-76
2022/04/06 13:04:45;;;;;;;8.63;3.67;;;12.00;99.90;;;;;;5012879;28;20037;-76